createdAt,value
2023-06-19T00:02:17.023Z,15.05
2023-06-19T00:04:44.671Z,12.32
2023-06-19T00:07:12.563Z,12.30
2023-06-19T00:09:40.190Z,12.88
2023-06-19T00:12:08.026Z,12.68
2023-06-19T00:14:37.092Z,13.45
2023-06-19T00:17:04.712Z,9.75
2023-06-19T00:19:37.229Z,11.73
2023-06-19T00:22:05.014Z,12.25
2023-06-19T00:24:33.066Z,9.95
2023-06-19T00:27:03.746Z,12.10
2023-06-19T00:29:31.428Z,12.02
2023-06-19T00:31:59.256Z,11.93
2023-06-19T00:34:28.996Z,10.88
2023-06-19T00:36:57.804Z,13.18
2023-06-19T00:39:26.444Z,12.30
2023-06-19T00:41:54.215Z,11.43
2023-06-19T00:44:21.849Z,10.38
2023-06-19T00:46:49.661Z,11.75
2023-06-19T00:49:17.304Z,11.38
2023-06-19T00:51:44.877Z,10.73
2023-06-19T00:54:12.509Z,10.32
2023-06-19T00:56:41.220Z,11.60
2023-06-19T00:59:08.936Z,10.05
2023-06-19T01:01:37.553Z,10.60
2023-06-19T01:04:05.632Z,11.20
2023-06-19T01:06:39.206Z,10.15
2023-06-19T01:09:07.098Z,11.13
2023-06-19T01:11:34.735Z,8.38
2023-06-19T01:14:02.618Z,11.40
2023-06-19T01:16:31.664Z,9.88
2023-06-19T01:18:59.314Z,9.57
2023-06-19T01:21:27.181Z,11.45
2023-06-19T01:23:54.828Z,9.18
2023-06-19T01:26:22.604Z,9.68
2023-06-19T01:28:50.274Z,9.45
2023-06-19T01:31:17.967Z,8.55
2023-06-19T01:33:45.736Z,12.20
2023-06-19T01:36:13.510Z,9.18
2023-06-19T01:38:41.158Z,8.07
2023-06-19T01:41:08.803Z,8.80
2023-06-19T01:43:36.448Z,8.55
2023-06-19T01:46:04.202Z,8.18
2023-06-19T01:48:31.849Z,7.90
2023-06-19T01:50:59.560Z,8.00
2023-06-19T01:53:27.417Z,9.77
2023-06-19T01:55:55.080Z,8.95
2023-06-19T01:58:22.849Z,9.15
2023-06-19T02:00:51.429Z,11.27
2023-06-19T02:03:19.384Z,9.40
2023-06-19T02:05:47.082Z,8.63
2023-06-19T02:08:14.905Z,8.30
2023-06-19T02:10:42.627Z,8.88
2023-06-19T02:13:10.505Z,8.18
2023-06-19T02:15:40.765Z,8.32
2023-06-19T02:18:08.578Z,8.45
2023-06-19T02:20:36.480Z,7.95
2023-06-19T02:23:04.140Z,8.10
2023-06-19T02:25:31.788Z,8.07
2023-06-19T02:27:59.434Z,9.00
2023-06-19T02:30:27.240Z,8.27
2023-06-19T02:32:54.972Z,8.00
2023-06-19T02:35:22.718Z,7.88
2023-06-19T02:37:50.583Z,8.27
2023-06-19T02:40:18.276Z,7.93
2023-06-19T02:42:46.069Z,7.13
2023-06-19T02:45:14.425Z,7.95
2023-06-19T02:47:42.482Z,9.10
2023-06-19T02:50:12.776Z,8.00
2023-06-19T02:52:41.348Z,7.30
2023-06-19T02:55:09.299Z,8.07
2023-06-19T02:57:36.963Z,7.95
2023-06-19T03:00:07.085Z,8.20
2023-06-19T03:02:34.922Z,7.25
2023-06-19T03:05:02.661Z,7.40
2023-06-19T03:07:30.404Z,7.25
2023-06-19T03:09:58.042Z,6.60
2023-06-19T03:12:25.707Z,7.00
2023-06-19T03:14:53.350Z,6.78
2023-06-19T03:17:21.157Z,7.15
2023-06-19T03:19:49.035Z,8.07
2023-06-19T03:22:16.707Z,8.63
2023-06-19T03:24:45.406Z,7.50
2023-06-19T03:27:13.197Z,7.20
2023-06-19T03:29:40.834Z,7.28
2023-06-19T03:32:08.590Z,6.03
2023-06-19T03:34:36.265Z,7.68
2023-06-19T03:37:03.911Z,7.85
2023-06-19T03:39:31.604Z,7.50
2023-06-19T03:41:59.422Z,7.53
2023-06-19T03:44:27.033Z,7.00
2023-06-19T03:46:54.662Z,6.70
2023-06-19T03:49:22.392Z,7.05
2023-06-19T03:51:50.030Z,6.68
2023-06-19T03:54:17.689Z,7.75
2023-06-19T03:56:45.429Z,9.77
2023-06-19T03:59:13.123Z,7.47
2023-06-19T04:01:41.966Z,6.38
2023-06-19T04:04:09.904Z,7.03
2023-06-19T04:06:39.589Z,6.55
2023-06-19T04:09:08.365Z,6.80
2023-06-19T04:11:38.194Z,6.57
2023-06-19T04:14:07.589Z,7.07
2023-06-19T04:16:35.710Z,8.77
2023-06-19T04:19:04.818Z,6.50
2023-06-19T04:21:32.616Z,6.55
2023-06-19T04:24:00.553Z,6.90
2023-06-19T04:26:28.248Z,6.22
2023-06-19T04:28:57.358Z,6.45
2023-06-19T04:31:27.607Z,6.10
2023-06-19T04:33:56.240Z,6.22
2023-06-19T04:36:24.134Z,5.93
2023-06-19T04:38:53.589Z,8.75
2023-06-19T04:41:21.377Z,6.32
2023-06-19T04:43:49.171Z,6.03
2023-06-19T04:46:21.253Z,6.28
2023-06-19T04:48:51.966Z,6.47
2023-06-19T04:51:22.012Z,8.50
2023-06-19T04:53:49.880Z,6.32
2023-06-19T04:56:17.800Z,5.97
2023-06-19T04:58:47.271Z,7.03
2023-06-19T05:01:14.981Z,5.80
2023-06-19T05:03:42.665Z,5.88
2023-06-19T05:06:10.441Z,5.57
2023-06-19T05:08:38.059Z,5.50
2023-06-19T05:11:05.702Z,7.30
2023-06-19T05:13:33.325Z,7.40
2023-06-19T05:16:01.067Z,5.40
2023-06-19T05:18:28.718Z,6.55
2023-06-19T05:20:56.615Z,7.38
2023-06-19T05:23:24.232Z,6.07
2023-06-19T05:25:51.804Z,5.30
2023-06-19T05:28:19.599Z,5.57
2023-06-19T05:30:47.212Z,5.55
2023-06-19T05:33:16.902Z,5.50
2023-06-19T05:35:44.858Z,5.82
2023-06-19T05:38:12.520Z,5.72
2023-06-19T05:40:40.204Z,5.30
2023-06-19T05:43:07.855Z,5.15
2023-06-19T05:45:35.491Z,5.63
2023-06-19T05:48:03.226Z,5.85
2023-06-19T05:50:31.936Z,8.98
2023-06-19T05:52:59.535Z,5.45
2023-06-19T05:55:28.549Z,5.40
2023-06-19T05:57:56.537Z,5.18
2023-06-19T06:00:24.584Z,6.07
2023-06-19T06:02:53.272Z,5.82
2023-06-19T06:05:21.814Z,4.65
2023-06-19T06:07:49.754Z,4.75
2023-06-19T06:10:18.376Z,4.82
2023-06-19T06:12:46.026Z,5.07
2023-06-19T06:15:13.758Z,7.10
2023-06-19T06:17:41.633Z,5.53
2023-06-19T06:20:13.617Z,4.60
2023-06-19T06:22:41.562Z,5.57
2023-06-19T06:25:12.142Z,5.18
2023-06-19T06:27:40.836Z,5.15
2023-06-19T06:30:08.490Z,5.28
2023-06-19T06:32:36.229Z,4.80
2023-06-19T06:35:03.985Z,5.07
2023-06-19T06:37:31.685Z,4.82
2023-06-19T06:39:59.452Z,5.47
2023-06-19T06:42:27.120Z,4.70
2023-06-19T06:44:54.739Z,5.32
2023-06-19T06:47:22.518Z,5.30
2023-06-19T06:49:50.274Z,4.82
2023-06-19T06:52:17.919Z,5.10
2023-06-19T06:54:46.209Z,5.13
2023-06-19T06:57:13.816Z,4.45
2023-06-19T06:59:41.453Z,4.38
2023-06-19T07:02:09.290Z,5.30
2023-06-19T07:04:36.971Z,4.82
2023-06-19T07:07:05.520Z,4.40
2023-06-19T07:09:33.205Z,4.72
2023-06-19T07:12:00.825Z,5.97
2023-06-19T07:14:29.136Z,4.75
2023-06-19T07:16:56.894Z,4.53
2023-06-19T07:19:24.575Z,4.97
2023-06-19T07:21:52.288Z,5.18
2023-06-19T07:24:20.129Z,5.10
2023-06-19T07:26:47.724Z,4.35
2023-06-19T07:29:15.413Z,4.68
2023-06-19T07:31:44.005Z,4.72
2023-06-19T07:34:11.797Z,4.90
2023-06-19T07:36:39.528Z,4.80
2023-06-19T07:39:07.128Z,4.70
2023-06-19T07:41:34.839Z,4.70
2023-06-19T07:44:02.515Z,4.70
2023-06-19T07:46:30.172Z,3.97
2023-06-19T07:48:57.883Z,4.40
2023-06-19T07:51:25.511Z,5.05
2023-06-19T07:53:53.144Z,4.70
2023-06-19T07:56:20.817Z,4.43
2023-06-19T07:58:48.810Z,4.45
2023-06-19T08:01:17.067Z,4.60
2023-06-19T08:03:44.797Z,4.45
2023-06-19T08:06:12.545Z,4.63
2023-06-19T08:08:40.216Z,4.47
2023-06-19T08:11:07.915Z,4.35
2023-06-19T08:13:35.580Z,4.45
2023-06-19T08:16:03.204Z,4.60
2023-06-19T08:18:30.841Z,4.78
2023-06-19T08:20:58.553Z,3.90
2023-06-19T08:23:26.282Z,3.95
2023-06-19T08:25:53.920Z,4.35
2023-06-19T08:28:21.563Z,3.95
2023-06-19T08:30:49.200Z,4.30
2023-06-19T08:33:16.919Z,4.35
2023-06-19T08:35:45.501Z,3.97
2023-06-19T08:38:13.120Z,3.70
2023-06-19T08:40:40.731Z,4.40
2023-06-19T08:43:08.322Z,4.68
2023-06-19T08:45:36.110Z,3.95
2023-06-19T08:48:04.866Z,3.83
2023-06-19T08:50:32.540Z,4.05
2023-06-19T08:53:00.225Z,4.13
2023-06-19T08:55:27.915Z,3.88
2023-06-19T08:57:55.586Z,4.10
2023-06-19T09:00:24.629Z,3.95
2023-06-19T09:03:08.426Z,4.43
2023-06-19T09:05:40.197Z,4.07
2023-06-19T09:08:07.858Z,5.20
2023-06-19T09:10:35.494Z,4.03
2023-06-19T09:13:03.166Z,3.92
2023-06-19T09:15:30.803Z,3.83
2023-06-19T09:17:58.486Z,3.95
2023-06-19T09:20:26.365Z,3.88
2023-06-19T09:22:54.283Z,3.63
2023-06-19T09:25:24.563Z,3.55
2023-06-19T09:27:52.323Z,3.88
2023-06-19T09:30:19.980Z,3.85
2023-06-19T09:32:47.622Z,3.60
2023-06-19T09:35:15.248Z,3.95
2023-06-19T09:37:42.909Z,4.10
2023-06-19T09:40:11.791Z,4.07
2023-06-19T09:42:39.507Z,3.67
2023-06-19T09:45:07.142Z,3.72
2023-06-19T09:47:34.889Z,4.03
2023-06-19T09:50:02.923Z,3.67
2023-06-19T09:52:30.596Z,3.72
2023-06-19T09:54:58.860Z,3.90
2023-06-19T09:57:26.488Z,4.07
2023-06-19T09:59:54.259Z,3.92
2023-06-19T10:02:22.144Z,3.85
2023-06-19T10:04:50.243Z,3.63
2023-06-19T10:07:18.868Z,3.70
2023-06-19T10:09:46.537Z,3.70
2023-06-19T10:12:14.220Z,3.45
2023-06-19T10:14:41.887Z,3.60
2023-06-19T10:17:09.686Z,3.90
2023-06-19T10:19:37.476Z,3.88
2023-06-19T10:22:05.147Z,3.50
2023-06-19T10:24:32.889Z,3.47
2023-06-19T10:27:01.080Z,3.60
2023-06-19T10:29:29.283Z,3.53
2023-06-19T10:31:58.073Z,3.40
2023-06-19T10:34:25.702Z,3.42
2023-06-19T10:36:53.346Z,3.38
2023-06-19T10:39:21.878Z,3.33
2023-06-19T10:41:49.788Z,3.60
2023-06-19T10:44:17.420Z,3.60
2023-06-19T10:46:45.371Z,3.30
2023-06-19T10:49:14.656Z,3.60
2023-06-19T10:51:42.655Z,3.55
2023-06-19T10:54:10.692Z,3.78
2023-06-19T10:56:38.400Z,3.63
2023-06-19T10:59:07.088Z,3.60
2023-06-19T11:01:35.227Z,3.50
2023-06-19T11:04:03.436Z,3.42
2023-06-19T11:06:31.125Z,3.35
2023-06-19T11:08:58.870Z,3.60
2023-06-19T11:11:26.491Z,3.22
2023-06-19T11:13:54.112Z,3.17
2023-06-19T11:16:22.406Z,3.88
2023-06-19T11:18:50.057Z,2.90
2023-06-19T11:21:17.607Z,3.55
2023-06-19T11:23:45.256Z,3.00
2023-06-19T11:26:12.915Z,3.28
2023-06-19T11:28:40.514Z,3.13
2023-06-19T11:31:08.477Z,2.95
2023-06-19T11:33:36.134Z,3.67
2023-06-19T11:36:04.201Z,3.30
2023-06-19T11:38:31.882Z,3.53
2023-06-19T11:40:59.563Z,3.30
2023-06-19T11:43:27.430Z,3.30
2023-06-19T11:45:55.080Z,3.35
2023-06-19T11:48:22.756Z,3.03
2023-06-19T11:50:50.452Z,3.28
2023-06-19T11:53:18.102Z,3.20
2023-06-19T11:55:45.910Z,3.08
2023-06-19T11:58:13.600Z,3.33
2023-06-19T12:00:41.240Z,3.15
2023-06-19T12:03:08.990Z,2.90
2023-06-19T12:05:36.657Z,2.95
2023-06-19T12:08:05.315Z,2.85
2023-06-19T12:10:33.025Z,3.17
2023-06-19T12:13:00.642Z,3.38
2023-06-19T12:15:28.965Z,3.38
2023-06-19T12:17:59.120Z,3.30
2023-06-19T12:20:27.364Z,2.92
2023-06-19T12:22:55.082Z,3.20
2023-06-19T12:25:22.773Z,3.10
2023-06-19T12:27:53.981Z,2.72
2023-06-19T12:30:23.182Z,3.45
2023-06-19T12:32:51.461Z,3.35
2023-06-19T12:35:19.429Z,2.97
2023-06-19T12:37:47.247Z,4.82
2023-06-19T12:40:14.875Z,3.50
2023-06-19T12:42:42.481Z,2.90
2023-06-19T12:45:10.638Z,2.83
2023-06-19T12:47:38.687Z,2.95
2023-06-19T12:50:06.375Z,3.00
2023-06-19T12:52:34.060Z,3.20
2023-06-19T12:55:02.439Z,3.00
2023-06-19T12:57:30.069Z,3.03
2023-06-19T12:59:57.674Z,2.58
2023-06-19T13:02:25.655Z,2.95
2023-06-19T13:04:53.447Z,3.00
2023-06-19T13:07:21.162Z,2.83
2023-06-19T13:09:48.730Z,3.25
2023-06-19T13:12:16.365Z,2.70
2023-06-19T13:14:44.139Z,2.80
2023-06-19T13:17:11.900Z,2.67
2023-06-19T13:19:39.531Z,2.80
2023-06-19T13:22:07.166Z,2.80
2023-06-19T13:24:35.707Z,2.97
2023-06-19T13:27:03.335Z,2.63
2023-06-19T13:29:31.020Z,3.00
2023-06-19T13:31:58.748Z,3.03
2023-06-19T13:34:26.384Z,2.72
2023-06-19T13:36:53.982Z,2.75
2023-06-19T13:39:21.649Z,2.80
2023-06-19T13:41:49.229Z,2.90
2023-06-19T13:44:16.838Z,2.90
2023-06-19T13:46:44.483Z,2.88
2023-06-19T13:49:12.117Z,2.47
2023-06-19T13:51:39.744Z,2.85
2023-06-19T13:54:07.432Z,2.50
2023-06-19T13:56:35.051Z,2.60
2023-06-19T13:59:03.898Z,2.83
2023-06-19T14:01:31.646Z,2.72
2023-06-19T14:03:59.507Z,2.85
2023-06-19T14:06:27.168Z,2.75
2023-06-19T14:08:54.849Z,2.80
2023-06-19T14:11:22.510Z,2.88
2023-06-19T14:13:50.681Z,2.58
2023-06-19T14:16:18.667Z,2.80
2023-06-19T14:18:46.304Z,2.75
2023-06-19T14:21:13.977Z,2.83
2023-06-19T14:23:44.417Z,2.58
2023-06-19T14:26:12.112Z,2.58
2023-06-19T14:28:40.270Z,2.80
2023-06-19T14:31:07.994Z,2.40
2023-06-19T14:33:36.857Z,2.42
2023-06-19T14:36:04.846Z,2.28
2023-06-19T14:38:34.871Z,2.33
2023-06-19T14:41:02.899Z,2.53
2023-06-19T14:43:33.451Z,2.40
2023-06-19T14:46:01.403Z,2.60
2023-06-19T14:48:31.410Z,2.75
2023-06-19T14:50:59.220Z,2.97
2023-06-19T14:53:26.852Z,2.70
2023-06-19T14:55:54.421Z,2.60
2023-06-19T14:58:22.053Z,2.75
2023-06-19T15:00:49.655Z,2.70
2023-06-19T15:03:17.462Z,2.60
2023-06-19T15:05:45.206Z,2.50
2023-06-19T15:08:12.846Z,2.65
2023-06-19T15:10:40.514Z,2.78
2023-06-19T15:13:08.129Z,2.70
2023-06-19T15:15:35.778Z,2.72
2023-06-19T15:18:03.526Z,2.70
2023-06-19T15:20:31.208Z,2.70
2023-06-19T15:22:58.810Z,2.40
2023-06-19T15:25:26.474Z,2.70
2023-06-19T15:27:54.099Z,2.45
2023-06-19T15:30:22.090Z,2.35
2023-06-19T15:32:49.958Z,2.55
2023-06-19T15:35:17.578Z,2.65
2023-06-19T15:37:45.172Z,2.60
2023-06-19T15:40:13.659Z,2.33
2023-06-19T15:42:41.275Z,2.28
2023-06-19T15:45:08.901Z,2.28
2023-06-19T15:47:36.649Z,2.45
2023-06-19T15:50:04.977Z,2.58
2023-06-19T15:52:34.009Z,2.90
2023-06-19T15:55:02.327Z,2.70
2023-06-19T15:57:29.939Z,2.80
2023-06-19T15:59:57.723Z,2.58
2023-06-19T16:02:25.467Z,2.45
2023-06-19T16:04:53.596Z,3.00
2023-06-19T16:07:21.278Z,3.47
2023-06-19T16:09:55.281Z,4.47
2023-06-19T16:12:25.877Z,4.25
2023-06-19T16:14:53.503Z,3.58
2023-06-19T16:17:21.491Z,4.07
2023-06-19T16:19:49.286Z,6.18
2023-06-19T16:22:16.937Z,4.05
2023-06-19T16:24:44.852Z,4.75
2023-06-19T16:27:12.545Z,4.00
2023-06-19T16:29:40.282Z,3.95
2023-06-19T16:32:10.083Z,4.10
2023-06-19T16:34:38.265Z,3.92
2023-06-19T16:37:05.937Z,3.95
2023-06-19T16:39:33.656Z,4.65
2023-06-19T16:42:01.343Z,4.10
2023-06-19T16:44:28.993Z,4.22
2023-06-19T16:46:56.971Z,4.65
2023-06-19T16:49:24.813Z,5.43
2023-06-19T16:51:52.449Z,3.95
2023-06-19T16:54:20.204Z,3.88
2023-06-19T16:56:47.885Z,4.45
2023-06-19T16:59:15.798Z,6.07
2023-06-19T17:01:44.452Z,3.85
2023-06-19T17:04:12.469Z,4.65
2023-06-19T17:06:40.085Z,4.00
2023-06-19T17:09:07.793Z,4.03
2023-06-19T17:11:35.545Z,3.70
2023-06-19T17:14:03.165Z,3.88
2023-06-19T17:16:31.026Z,4.20
2023-06-19T17:18:58.626Z,4.45
2023-06-19T17:21:26.564Z,4.05
2023-06-19T17:23:55.448Z,4.15
2023-06-19T17:26:23.116Z,3.95
2023-06-19T17:28:50.916Z,4.63
2023-06-19T17:31:18.571Z,4.00
2023-06-19T17:33:47.052Z,3.95
2023-06-19T17:36:14.778Z,3.90
2023-06-19T17:38:42.404Z,4.50
2023-06-19T17:41:10.092Z,3.90
2023-06-19T17:43:37.890Z,4.10
2023-06-19T17:46:05.703Z,4.70
2023-06-19T17:48:33.419Z,4.00
2023-06-19T17:51:01.278Z,7.95
2023-06-19T17:53:28.903Z,4.07
2023-06-19T17:55:56.562Z,4.72
2023-06-19T17:58:24.794Z,4.18
2023-06-19T18:00:52.517Z,4.05
2023-06-19T18:03:20.364Z,4.00
2023-06-19T18:05:48.258Z,4.10
2023-06-19T18:08:16.216Z,4.10
2023-06-19T18:10:44.254Z,3.88
2023-06-19T18:13:11.884Z,3.80
2023-06-19T18:15:40.269Z,3.95
2023-06-19T18:18:09.251Z,4.07
2023-06-19T18:20:37.136Z,3.78
2023-06-19T18:23:05.158Z,3.97
2023-06-19T18:25:33.114Z,3.92
2023-06-19T18:28:02.100Z,3.80
2023-06-19T18:30:30.016Z,4.00
2023-06-19T18:32:57.881Z,3.80
2023-06-19T18:35:29.276Z,4.07
2023-06-19T18:37:57.278Z,4.15
2023-06-19T18:40:25.199Z,5.40
2023-06-19T18:42:53.156Z,4.10
2023-06-19T18:45:20.823Z,4.50
2023-06-19T18:47:49.058Z,4.83
2023-06-19T18:50:17.139Z,3.85
2023-06-19T19:24:24.475Z,4.18
2023-06-19T19:26:52.306Z,3.90
2023-06-19T19:29:19.926Z,3.58
2023-06-19T19:31:47.801Z,3.50
2023-06-19T19:34:20.762Z,4.40
2023-06-19T19:36:49.953Z,3.90
2023-06-19T19:39:17.726Z,3.88
2023-06-19T19:41:46.885Z,4.07
2023-06-19T19:44:14.475Z,4.05
2023-06-19T19:46:42.150Z,4.97
2023-06-19T19:49:09.841Z,3.92
2023-06-19T19:51:37.474Z,9.45
2023-06-19T19:54:05.288Z,13.85
2023-06-19T19:56:33.031Z,12.35
2023-06-19T19:59:00.652Z,10.65
2023-06-19T20:01:28.458Z,14.52
2023-06-19T20:03:56.340Z,12.30
2023-06-19T20:06:25.513Z,9.63
2023-06-19T20:08:53.189Z,11.82
2023-06-19T20:11:20.968Z,14.23
2023-06-19T20:13:48.905Z,11.15
2023-06-19T20:16:16.783Z,11.38
2023-06-19T20:18:44.496Z,9.95
2023-06-19T20:21:12.101Z,10.55
2023-06-19T20:23:39.721Z,10.60
2023-06-19T20:26:07.328Z,10.35
2023-06-19T20:28:35.036Z,9.13
2023-06-19T20:31:02.809Z,9.73
2023-06-19T20:33:30.425Z,9.52
2023-06-19T20:36:01.893Z,12.32
2023-06-19T20:38:29.659Z,11.40
2023-06-19T20:40:57.349Z,10.63
2023-06-19T20:43:25.665Z,19.40
2023-06-19T20:45:53.325Z,10.88
2023-06-19T20:48:20.969Z,13.73
2023-06-19T20:50:48.657Z,12.43
2023-06-19T20:53:16.425Z,11.65
2023-06-19T20:55:44.156Z,14.02
2023-06-19T20:58:12.086Z,12.95
2023-06-19T21:00:39.799Z,11.07
2023-06-19T21:03:09.991Z,9.82
2023-06-19T21:05:39.548Z,11.65
2023-06-19T21:08:08.741Z,8.50
2023-06-19T21:10:36.622Z,8.90
2023-06-19T21:13:20.985Z,9.80
2023-06-19T21:15:50.361Z,11.25
2023-06-19T21:18:18.213Z,10.63
2023-06-19T21:20:45.884Z,11.43
2023-06-19T21:23:13.605Z,9.43
2023-06-19T21:25:41.463Z,8.20
2023-06-19T21:28:09.091Z,9.63
2023-06-19T21:30:36.763Z,9.48
2023-06-19T21:33:04.648Z,10.15
2023-06-19T21:35:32.294Z,9.57
2023-06-19T21:37:59.931Z,8.65
2023-06-19T21:40:27.787Z,10.63
2023-06-19T21:42:55.487Z,9.88
2023-06-19T21:45:26.680Z,8.95
2023-06-19T21:47:54.333Z,9.35
2023-06-19T21:50:22.062Z,9.10
2023-06-19T21:52:49.873Z,8.38
2023-06-19T21:55:17.565Z,8.30
2023-06-19T21:57:58.479Z,7.82
2023-06-19T22:00:27.969Z,9.20
2023-06-19T22:02:55.913Z,8.00
2023-06-19T22:05:24.039Z,7.40
2023-06-19T22:07:51.673Z,7.55
2023-06-19T22:10:19.382Z,6.97
2023-06-19T22:12:47.011Z,8.13
2023-06-19T22:15:14.704Z,7.22
2023-06-19T22:17:46.361Z,8.80
2023-06-19T22:20:14.362Z,8.60
2023-06-19T22:22:42.141Z,6.40
2023-06-19T22:25:09.734Z,7.95
2023-06-19T22:27:37.461Z,8.45
2023-06-19T22:30:05.111Z,6.82
2023-06-19T22:32:32.742Z,6.78
2023-06-19T22:35:00.555Z,6.70
2023-06-19T22:37:28.644Z,8.40
2023-06-19T22:39:56.480Z,7.93
2023-06-19T22:42:24.162Z,7.03
2023-06-19T22:44:51.764Z,6.95
2023-06-19T22:47:19.654Z,6.60
2023-06-19T22:49:47.297Z,6.20
2023-06-19T22:52:15.049Z,6.35
2023-06-19T22:54:42.745Z,7.28
2023-06-19T22:57:10.348Z,6.72
2023-06-19T22:59:37.956Z,6.93
2023-06-19T23:02:05.719Z,7.63
2023-06-19T23:04:33.331Z,5.50
2023-06-19T23:07:02.685Z,5.93
2023-06-19T23:09:31.856Z,6.03
2023-06-19T23:11:59.678Z,7.63
2023-06-19T23:14:29.261Z,6.18
2023-06-19T23:16:57.268Z,5.35
2023-06-19T23:19:25.331Z,5.72
2023-06-19T23:21:52.989Z,5.63
2023-06-19T23:24:20.656Z,5.60
2023-06-19T23:26:50.094Z,5.95
2023-06-19T23:29:17.875Z,6.85
2023-06-19T23:31:45.656Z,5.45
2023-06-19T23:34:13.254Z,5.45
2023-06-19T23:36:40.961Z,5.93
2023-06-19T23:39:08.998Z,5.20
2023-06-19T23:41:36.628Z,5.50
2023-06-19T23:44:04.595Z,5.15
2023-06-19T23:46:32.254Z,4.80
2023-06-19T23:48:59.942Z,5.03
2023-06-19T23:51:27.736Z,6.15
2023-06-19T23:53:55.333Z,5.05
2023-06-19T23:56:23.100Z,4.80
2023-06-19T23:58:50.823Z,5.15
